sensor_id;sensor_type;location;lat;lon;timestamp;P1;durP1;ratioP1;P2;durP2;ratioP2
8478;SDS011;4276;49.354;6.804;2023-10-19T00:01:01;15.15;;;13.73;;
8478;SDS011;4276;49.354;6.804;2023-10-19T00:03:27;15.27;;;13.68;;
8478;SDS011;4276;49.354;6.804;2023-10-19T00:05:55;14.15;;;13.00;;
8478;SDS011;4276;49.354;6.804;2023-10-19T00:08:22;14.93;;;13.50;;
8478;SDS011;4276;49.354;6.804;2023-10-19T00:10:50;18.05;;;16.15;;
8478;SDS011;4276;49.354;6.804;2023-10-19T00:13:35;15.88;;;14.02;;
8478;SDS011;4276;49.354;6.804;2023-10-19T00:16:02;16.02;;;14.63;;
8478;SDS011;4276;49.354;6.804;2023-10-19T00:18:38;14.73;;;13.32;;
8478;SDS011;4276;49.354;6.804;2023-10-19T00:21:09;15.18;;;13.57;;
8478;SDS011;4276;49.354;6.804;2023-10-19T00:23:52;14.10;;;12.80;;
8478;SDS011;4276;49.354;6.804;2023-10-19T00:26:23;13.27;;;12.15;;
8478;SDS011;4276;49.354;6.804;2023-10-19T00:28:56;13.20;;;11.98;;
8478;SDS011;4276;49.354;6.804;2023-10-19T00:31:27;13.25;;;12.05;;
8478;SDS011;4276;49.354;6.804;2023-10-19T00:33:54;13.30;;;12.10;;
8478;SDS011;4276;49.354;6.804;2023-10-19T00:36:24;13.07;;;11.88;;
8478;SDS011;4276;49.354;6.804;2023-10-19T00:38:52;13.98;;;12.57;;
8478;SDS011;4276;49.354;6.804;2023-10-19T00:41:23;12.77;;;11.68;;
8478;SDS011;4276;49.354;6.804;2023-10-19T00:43:58;12.57;;;11.48;;
8478;SDS011;4276;49.354;6.804;2023-10-19T00:46:38;11.43;;;10.32;;
8478;SDS011;4276;49.354;6.804;2023-10-19T00:49:11;13.43;;;12.23;;
8478;SDS011;4276;49.354;6.804;2023-10-19T00:51:49;16.55;;;14.63;;
8478;SDS011;4276;49.354;6.804;2023-10-19T00:54:46;12.88;;;11.77;;
8478;SDS011;4276;49.354;6.804;2023-10-19T00:57:17;11.52;;;10.52;;
8478;SDS011;4276;49.354;6.804;2023-10-19T00:59:46;12.10;;;11.10;;
8478;SDS011;4276;49.354;6.804;2023-10-19T01:02:15;12.77;;;11.57;;
8478;SDS011;4276;49.354;6.804;2023-10-19T01:04:52;11.13;;;10.15;;
8478;SDS011;4276;49.354;6.804;2023-10-19T01:07:23;10.75;;;9.85;;
8478;SDS011;4276;49.354;6.804;2023-10-19T01:09:53;12.57;;;11.50;;
8478;SDS011;4276;49.354;6.804;2023-10-19T01:12:23;11.57;;;10.57;;
8478;SDS011;4276;49.354;6.804;2023-10-19T01:15:12;11.02;;;10.13;;
8478;SDS011;4276;49.354;6.804;2023-10-19T01:17:43;12.18;;;11.10;;
8478;SDS011;4276;49.354;6.804;2023-10-19T01:20:12;11.80;;;10.80;;
8478;SDS011;4276;49.354;6.804;2023-10-19T01:25:20;10.20;;;9.27;;
8478;SDS011;4276;49.354;6.804;2023-10-19T01:27:52;10.23;;;9.43;;
8478;SDS011;4276;49.354;6.804;2023-10-19T01:30:24;10.52;;;9.60;;
8478;SDS011;4276;49.354;6.804;2023-10-19T01:32:57;14.35;;;13.05;;
8478;SDS011;4276;49.354;6.804;2023-10-19T01:35:26;14.30;;;12.65;;
8478;SDS011;4276;49.354;6.804;2023-10-19T01:37:53;13.27;;;11.77;;
8478;SDS011;4276;49.354;6.804;2023-10-19T01:40:20;12.82;;;10.98;;
8478;SDS011;4276;49.354;6.804;2023-10-19T01:42:47;10.85;;;9.75;;
8478;SDS011;4276;49.354;6.804;2023-10-19T01:45:14;11.43;;;10.32;;
8478;SDS011;4276;49.354;6.804;2023-10-19T01:47:40;13.85;;;10.52;;
8478;SDS011;4276;49.354;6.804;2023-10-19T01:50:09;10.80;;;9.70;;
8478;SDS011;4276;49.354;6.804;2023-10-19T01:52:48;11.68;;;9.80;;
8478;SDS011;4276;49.354;6.804;2023-10-19T01:55:15;11.32;;;9.50;;
8478;SDS011;4276;49.354;6.804;2023-10-19T01:57:46;11.23;;;9.50;;
8478;SDS011;4276;49.354;6.804;2023-10-19T02:00:13;10.07;;;8.93;;
8478;SDS011;4276;49.354;6.804;2023-10-19T02:02:49;14.40;;;9.18;;
8478;SDS011;4276;49.354;6.804;2023-10-19T02:05:16;12.43;;;9.30;;
8478;SDS011;4276;49.354;6.804;2023-10-19T02:07:45;9.48;;;8.43;;
8478;SDS011;4276;49.354;6.804;2023-10-19T02:10:13;10.63;;;9.52;;
8478;SDS011;4276;49.354;6.804;2023-10-19T02:12:40;13.13;;;9.52;;
8478;SDS011;4276;49.354;6.804;2023-10-19T02:15:08;12.32;;;9.60;;
8478;SDS011;4276;49.354;6.804;2023-10-19T02:17:35;10.27;;;9.05;;
8478;SDS011;4276;49.354;6.804;2023-10-19T02:20:03;10.88;;;9.75;;
8478;SDS011;4276;49.354;6.804;2023-10-19T02:22:55;10.60;;;9.32;;
8478;SDS011;4276;49.354;6.804;2023-10-19T02:25:24;10.57;;;9.48;;
8478;SDS011;4276;49.354;6.804;2023-10-19T02:27:54;10.15;;;9.07;;
8478;SDS011;4276;49.354;6.804;2023-10-19T02:30:22;9.85;;;8.90;;
8478;SDS011;4276;49.354;6.804;2023-10-19T02:32:51;9.23;;;8.25;;
8478;SDS011;4276;49.354;6.804;2023-10-19T02:35:19;9.00;;;8.25;;
8478;SDS011;4276;49.354;6.804;2023-10-19T02:37:46;9.30;;;8.45;;
8478;SDS011;4276;49.354;6.804;2023-10-19T02:40:13;9.50;;;8.70;;
8478;SDS011;4276;49.354;6.804;2023-10-19T02:42:51;8.98;;;8.23;;
8478;SDS011;4276;49.354;6.804;2023-10-19T02:45:19;10.00;;;8.80;;
8478;SDS011;4276;49.354;6.804;2023-10-19T02:47:48;8.48;;;7.78;;
8478;SDS011;4276;49.354;6.804;2023-10-19T02:50:16;9.73;;;8.65;;
8478;SDS011;4276;49.354;6.804;2023-10-19T02:52:48;10.07;;;8.93;;
8478;SDS011;4276;49.354;6.804;2023-10-19T02:55:15;9.77;;;8.77;;
8478;SDS011;4276;49.354;6.804;2023-10-19T02:57:46;8.27;;;7.65;;
8478;SDS011;4276;49.354;6.804;2023-10-19T03:00:13;8.90;;;8.10;;
8478;SDS011;4276;49.354;6.804;2023-10-19T03:02:40;9.10;;;8.40;;
8478;SDS011;4276;49.354;6.804;2023-10-19T03:05:07;8.50;;;7.80;;
8478;SDS011;4276;49.354;6.804;2023-10-19T03:07:41;9.30;;;8.40;;
8478;SDS011;4276;49.354;6.804;2023-10-19T03:10:11;8.73;;;8.00;;
8478;SDS011;4276;49.354;6.804;2023-10-19T03:12:56;7.97;;;7.28;;
8478;SDS011;4276;49.354;6.804;2023-10-19T03:15:23;8.27;;;7.47;;
8478;SDS011;4276;49.354;6.804;2023-10-19T03:17:56;7.85;;;7.10;;
8478;SDS011;4276;49.354;6.804;2023-10-19T03:20:23;9.02;;;8.07;;
8478;SDS011;4276;49.354;6.804;2023-10-19T03:22:51;9.02;;;8.23;;
8478;SDS011;4276;49.354;6.804;2023-10-19T03:25:18;8.50;;;7.80;;
8478;SDS011;4276;49.354;6.804;2023-10-19T03:28:04;7.82;;;7.22;;
8478;SDS011;4276;49.354;6.804;2023-10-19T03:30:37;8.30;;;7.60;;
8478;SDS011;4276;49.354;6.804;2023-10-19T03:33:07;11.68;;;8.20;;
8478;SDS011;4276;49.354;6.804;2023-10-19T03:35:38;8.75;;;7.63;;
8478;SDS011;4276;49.354;6.804;2023-10-19T03:38:08;8.65;;;7.95;;
8478;SDS011;4276;49.354;6.804;2023-10-19T03:40:41;8.43;;;7.55;;
8478;SDS011;4276;49.354;6.804;2023-10-19T03:43:09;7.80;;;7.13;;
8478;SDS011;4276;49.354;6.804;2023-10-19T03:45:48;7.55;;;6.95;;
8478;SDS011;4276;49.354;6.804;2023-10-19T03:48:19;6.80;;;6.22;;
8478;SDS011;4276;49.354;6.804;2023-10-19T03:50:53;8.70;;;6.22;;
8478;SDS011;4276;49.354;6.804;2023-10-19T03:53:22;7.20;;;6.30;;
8478;SDS011;4276;49.354;6.804;2023-10-19T03:55:49;7.43;;;6.45;;
8478;SDS011;4276;49.354;6.804;2023-10-19T03:58:21;7.15;;;6.45;;
8478;SDS011;4276;49.354;6.804;2023-10-19T04:00:48;8.90;;;6.18;;
8478;SDS011;4276;49.354;6.804;2023-10-19T04:03:17;6.15;;;5.57;;
8478;SDS011;4276;49.354;6.804;2023-10-19T04:05:44;5.97;;;5.47;;
8478;SDS011;4276;49.354;6.804;2023-10-19T04:08:13;6.20;;;5.55;;
8478;SDS011;4276;49.354;6.804;2023-10-19T04:10:47;7.00;;;6.30;;
8478;SDS011;4276;49.354;6.804;2023-10-19T04:13:34;7.32;;;5.95;;
8478;SDS011;4276;49.354;6.804;2023-10-19T04:16:05;7.45;;;6.45;;
8478;SDS011;4276;49.354;6.804;2023-10-19T04:18:35;6.90;;;6.30;;
8478;SDS011;4276;49.354;6.804;2023-10-19T04:21:14;9.00;;;6.85;;
8478;SDS011;4276;49.354;6.804;2023-10-19T04:23:40;7.43;;;6.35;;
8478;SDS011;4276;49.354;6.804;2023-10-19T04:26:07;8.85;;;5.82;;
8478;SDS011;4276;49.354;6.804;2023-10-19T04:28:38;9.02;;;6.50;;
8478;SDS011;4276;49.354;6.804;2023-10-19T04:31:18;8.23;;;6.10;;
8478;SDS011;4276;49.354;6.804;2023-10-19T04:33:50;8.50;;;6.57;;
8478;SDS011;4276;49.354;6.804;2023-10-19T04:36:17;8.85;;;7.88;;
8478;SDS011;4276;49.354;6.804;2023-10-19T04:38:47;8.05;;;7.25;;
8478;SDS011;4276;49.354;6.804;2023-10-19T04:41:14;9.70;;;8.05;;
8478;SDS011;4276;49.354;6.804;2023-10-19T04:43:41;10.35;;;9.13;;
8478;SDS011;4276;49.354;6.804;2023-10-19T04:46:16;10.10;;;8.90;;
8478;SDS011;4276;49.354;6.804;2023-10-19T04:48:46;10.68;;;8.77;;
8478;SDS011;4276;49.354;6.804;2023-10-19T04:51:14;10.20;;;8.95;;
8478;SDS011;4276;49.354;6.804;2023-10-19T04:53:41;10.25;;;9.25;;
8478;SDS011;4276;49.354;6.804;2023-10-19T04:56:10;11.25;;;9.63;;
8478;SDS011;4276;49.354;6.804;2023-10-19T04:58:38;10.23;;;9.23;;
8478;SDS011;4276;49.354;6.804;2023-10-19T05:01:05;12.20;;;10.35;;
8478;SDS011;4276;49.354;6.804;2023-10-19T05:03:32;12.25;;;10.95;;
8478;SDS011;4276;49.354;6.804;2023-10-19T05:05:59;15.70;;;14.05;;
8478;SDS011;4276;49.354;6.804;2023-10-19T05:08:27;15.13;;;12.60;;
8478;SDS011;4276;49.354;6.804;2023-10-19T05:10:54;13.90;;;12.27;;
8478;SDS011;4276;49.354;6.804;2023-10-19T05:13:24;13.32;;;11.95;;
8478;SDS011;4276;49.354;6.804;2023-10-19T05:15:55;15.90;;;13.20;;
8478;SDS011;4276;49.354;6.804;2023-10-19T05:18:22;14.35;;;12.90;;
8478;SDS011;4276;49.354;6.804;2023-10-19T05:20:49;16.23;;;13.82;;
8478;SDS011;4276;49.354;6.804;2023-10-19T05:23:24;14.73;;;13.20;;
8478;SDS011;4276;49.354;6.804;2023-10-19T05:25:52;19.52;;;15.75;;
8478;SDS011;4276;49.354;6.804;2023-10-19T05:28:20;18.33;;;15.02;;
8478;SDS011;4276;49.354;6.804;2023-10-19T05:30:49;15.73;;;14.13;;
8478;SDS011;4276;49.354;6.804;2023-10-19T05:33:16;17.75;;;14.13;;
8478;SDS011;4276;49.354;6.804;2023-10-19T05:35:47;15.95;;;13.57;;
8478;SDS011;4276;49.354;6.804;2023-10-19T05:38:14;16.10;;;14.40;;
8478;SDS011;4276;49.354;6.804;2023-10-19T05:40:44;17.33;;;14.57;;
8478;SDS011;4276;49.354;6.804;2023-10-19T05:43:11;18.13;;;14.02;;
8478;SDS011;4276;49.354;6.804;2023-10-19T05:45:38;14.60;;;12.95;;
8478;SDS011;4276;49.354;6.804;2023-10-19T05:48:07;13.90;;;12.50;;
8478;SDS011;4276;49.354;6.804;2023-10-19T05:50:34;14.30;;;12.90;;
8478;SDS011;4276;49.354;6.804;2023-10-19T05:53:02;13.35;;;11.95;;
8478;SDS011;4276;49.354;6.804;2023-10-19T05:55:32;13.73;;;12.38;;
8478;SDS011;4276;49.354;6.804;2023-10-19T05:58:03;13.70;;;12.30;;
8478;SDS011;4276;49.354;6.804;2023-10-19T06:00:30;15.02;;;12.40;;
8478;SDS011;4276;49.354;6.804;2023-10-19T06:02:57;11.90;;;10.70;;
8478;SDS011;4276;49.354;6.804;2023-10-19T06:05:24;12.32;;;11.13;;
8478;SDS011;4276;49.354;6.804;2023-10-19T06:07:51;13.07;;;11.77;;
8478;SDS011;4276;49.354;6.804;2023-10-19T06:10:19;11.57;;;10.57;;
8478;SDS011;4276;49.354;6.804;2023-10-19T06:12:48;14.27;;;11.25;;
8478;SDS011;4276;49.354;6.804;2023-10-19T06:15:19;11.30;;;10.20;;
8478;SDS011;4276;49.354;6.804;2023-10-19T06:17:47;11.25;;;10.25;;
8478;SDS011;4276;49.354;6.804;2023-10-19T06:20:16;12.32;;;10.98;;
8478;SDS011;4276;49.354;6.804;2023-10-19T06:22:58;11.65;;;10.25;;
8478;SDS011;4276;49.354;6.804;2023-10-19T06:25:32;10.45;;;9.40;;
8478;SDS011;4276;49.354;6.804;2023-10-19T06:28:01;10.25;;;9.10;;
8478;SDS011;4276;49.354;6.804;2023-10-19T06:30:28;8.80;;;7.97;;
8478;SDS011;4276;49.354;6.804;2023-10-19T06:32:55;15.48;;;10.65;;
8478;SDS011;4276;49.354;6.804;2023-10-19T06:35:33;9.75;;;8.88;;
8478;SDS011;4276;49.354;6.804;2023-10-19T06:38:00;9.48;;;8.55;;
8478;SDS011;4276;49.354;6.804;2023-10-19T06:40:27;8.75;;;7.95;;
8478;SDS011;4276;49.354;6.804;2023-10-19T06:42:56;8.77;;;8.07;;
8478;SDS011;4276;49.354;6.804;2023-10-19T06:45:28;8.48;;;7.78;;
8478;SDS011;4276;49.354;6.804;2023-10-19T06:47:58;8.23;;;7.53;;
8478;SDS011;4276;49.354;6.804;2023-10-19T06:50:33;7.85;;;7.15;;
8478;SDS011;4276;49.354;6.804;2023-10-19T06:53:00;8.30;;;7.68;;
8478;SDS011;4276;49.354;6.804;2023-10-19T06:55:36;8.35;;;7.75;;
8478;SDS011;4276;49.354;6.804;2023-10-19T06:58:03;8.35;;;7.60;;
8478;SDS011;4276;49.354;6.804;2023-10-19T07:00:40;7.60;;;6.90;;
8478;SDS011;4276;49.354;6.804;2023-10-19T07:03:23;8.10;;;7.38;;
8478;SDS011;4276;49.354;6.804;2023-10-19T07:05:51;7.72;;;7.03;;
8478;SDS011;4276;49.354;6.804;2023-10-19T07:08:19;9.02;;;8.23;;
8478;SDS011;4276;49.354;6.804;2023-10-19T07:10:48;9.05;;;7.65;;
8478;SDS011;4276;49.354;6.804;2023-10-19T07:13:18;8.30;;;7.50;;
8478;SDS011;4276;49.354;6.804;2023-10-19T07:15:46;7.60;;;6.90;;
8478;SDS011;4276;49.354;6.804;2023-10-19T07:18:15;8.23;;;7.43;;
8478;SDS011;4276;49.354;6.804;2023-10-19T07:20:42;8.00;;;7.25;;
8478;SDS011;4276;49.354;6.804;2023-10-19T07:23:16;8.45;;;7.63;;
8478;SDS011;4276;49.354;6.804;2023-10-19T07:25:52;8.73;;;7.93;;
8478;SDS011;4276;49.354;6.804;2023-10-19T07:28:26;8.05;;;7.25;;
8478;SDS011;4276;49.354;6.804;2023-10-19T07:30:53;9.07;;;8.25;;
8478;SDS011;4276;49.354;6.804;2023-10-19T07:33:20;10.00;;;8.38;;
8478;SDS011;4276;49.354;6.804;2023-10-19T07:35:47;8.73;;;7.88;;
8478;SDS011;4276;49.354;6.804;2023-10-19T07:38:26;10.68;;;8.30;;
8478;SDS011;4276;49.354;6.804;2023-10-19T07:40:55;8.77;;;7.93;;
8478;SDS011;4276;49.354;6.804;2023-10-19T07:43:22;8.35;;;7.22;;
8478;SDS011;4276;49.354;6.804;2023-10-19T07:45:49;8.60;;;7.25;;
8478;SDS011;4276;49.354;6.804;2023-10-19T07:48:16;8.77;;;7.20;;
8478;SDS011;4276;49.354;6.804;2023-10-19T07:50:46;8.02;;;7.05;;
8478;SDS011;4276;49.354;6.804;2023-10-19T07:53:13;11.35;;;7.50;;
8478;SDS011;4276;49.354;6.804;2023-10-19T07:55:46;7.88;;;7.13;;
8478;SDS011;4276;49.354;6.804;2023-10-19T07:58:12;7.53;;;6.60;;
8478;SDS011;4276;49.354;6.804;2023-10-19T08:00:41;8.32;;;6.50;;
8478;SDS011;4276;49.354;6.804;2023-10-19T08:03:09;7.65;;;6.85;;
8478;SDS011;4276;49.354;6.804;2023-10-19T08:05:37;7.80;;;6.80;;
8478;SDS011;4276;49.354;6.804;2023-10-19T08:08:04;7.50;;;6.82;;
8478;SDS011;4276;49.354;6.804;2023-10-19T08:10:32;7.03;;;6.13;;
8478;SDS011;4276;49.354;6.804;2023-10-19T08:13:01;7.00;;;6.40;;
8478;SDS011;4276;49.354;6.804;2023-10-19T08:15:27;8.35;;;6.28;;
8478;SDS011;4276;49.354;6.804;2023-10-19T08:17:57;7.25;;;6.55;;
8478;SDS011;4276;49.354;6.804;2023-10-19T08:20:23;7.28;;;6.65;;
8478;SDS011;4276;49.354;6.804;2023-10-19T08:22:52;7.85;;;6.85;;
8478;SDS011;4276;49.354;6.804;2023-10-19T08:25:25;7.07;;;6.40;;
8478;SDS011;4276;49.354;6.804;2023-10-19T08:28:14;6.97;;;6.30;;
8478;SDS011;4276;49.354;6.804;2023-10-19T08:30:42;7.07;;;6.38;;
8478;SDS011;4276;49.354;6.804;2023-10-19T08:33:11;6.93;;;6.30;;
8478;SDS011;4276;49.354;6.804;2023-10-19T08:35:40;6.70;;;6.13;;
8478;SDS011;4276;49.354;6.804;2023-10-19T08:38:07;6.68;;;6.07;;
8478;SDS011;4276;49.354;6.804;2023-10-19T08:40:38;6.38;;;5.78;;
8478;SDS011;4276;49.354;6.804;2023-10-19T08:43:06;6.10;;;5.50;;
8478;SDS011;4276;49.354;6.804;2023-10-19T08:45:36;5.88;;;5.38;;
8478;SDS011;4276;49.354;6.804;2023-10-19T08:48:03;6.20;;;5.60;;
8478;SDS011;4276;49.354;6.804;2023-10-19T08:50:31;6.13;;;5.63;;
8478;SDS011;4276;49.354;6.804;2023-10-19T08:53:04;6.57;;;5.75;;
8478;SDS011;4276;49.354;6.804;2023-10-19T08:55:32;6.20;;;5.45;;
8478;SDS011;4276;49.354;6.804;2023-10-19T08:58:15;6.00;;;5.43;;
8478;SDS011;4276;49.354;6.804;2023-10-19T09:00:44;6.43;;;5.50;;
8478;SDS011;4276;49.354;6.804;2023-10-19T09:03:18;7.13;;;5.60;;
8478;SDS011;4276;49.354;6.804;2023-10-19T09:05:45;6.68;;;6.07;;
8478;SDS011;4276;49.354;6.804;2023-10-19T09:08:14;6.60;;;5.97;;
8478;SDS011;4276;49.354;6.804;2023-10-19T09:10:46;7.97;;;5.65;;
8478;SDS011;4276;49.354;6.804;2023-10-19T09:13:15;7.82;;;5.68;;
8478;SDS011;4276;49.354;6.804;2023-10-19T09:15:46;6.40;;;5.78;;
8478;SDS011;4276;49.354;6.804;2023-10-19T09:18:16;5.95;;;5.45;;
8478;SDS011;4276;49.354;6.804;2023-10-19T09:20:45;5.45;;;5.05;;
8478;SDS011;4276;49.354;6.804;2023-10-19T09:23:34;5.85;;;5.22;;
8478;SDS011;4276;49.354;6.804;2023-10-19T09:26:04;7.25;;;5.80;;
8478;SDS011;4276;49.354;6.804;2023-10-19T09:28:36;5.68;;;5.18;;
8478;SDS011;4276;49.354;6.804;2023-10-19T09:31:05;5.32;;;4.93;;
8478;SDS011;4276;49.354;6.804;2023-10-19T09:33:32;6.70;;;5.60;;
8478;SDS011;4276;49.354;6.804;2023-10-19T09:36:03;6.13;;;5.53;;
8478;SDS011;4276;49.354;6.804;2023-10-19T09:38:49;5.88;;;5.38;;
8478;SDS011;4276;49.354;6.804;2023-10-19T09:41:20;5.97;;;5.40;;
8478;SDS011;4276;49.354;6.804;2023-10-19T09:43:50;7.82;;;5.93;;
8478;SDS011;4276;49.354;6.804;2023-10-19T09:46:22;6.15;;;5.25;;
8478;SDS011;4276;49.354;6.804;2023-10-19T09:48:49;6.15;;;5.65;;
8478;SDS011;4276;49.354;6.804;2023-10-19T09:51:19;7.68;;;5.60;;
8478;SDS011;4276;49.354;6.804;2023-10-19T09:53:50;5.72;;;5.20;;
8478;SDS011;4276;49.354;6.804;2023-10-19T09:56:20;5.55;;;5.15;;
8478;SDS011;4276;49.354;6.804;2023-10-19T09:58:51;5.50;;;5.03;;
8478;SDS011;4276;49.354;6.804;2023-10-19T10:01:22;5.13;;;4.72;;
8478;SDS011;4276;49.354;6.804;2023-10-19T10:03:50;5.63;;;5.05;;
8478;SDS011;4276;49.354;6.804;2023-10-19T10:06:56;5.32;;;4.82;;
8478;SDS011;4276;49.354;6.804;2023-10-19T10:09:17;5.43;;;4.93;;
8478;SDS011;4276;49.354;6.804;2023-10-19T10:11:50;6.03;;;5.53;;
8478;SDS011;4276;49.354;6.804;2023-10-19T10:14:22;5.45;;;4.93;;
8478;SDS011;4276;49.354;6.804;2023-10-19T10:17:04;5.60;;;4.97;;
8478;SDS011;4276;49.354;6.804;2023-10-19T10:19:36;5.38;;;4.93;;
8478;SDS011;4276;49.354;6.804;2023-10-19T10:22:10;5.20;;;4.80;;
8478;SDS011;4276;49.354;6.804;2023-10-19T10:24:45;5.13;;;4.63;;
8478;SDS011;4276;49.354;6.804;2023-10-19T10:27:15;4.90;;;4.43;;
8478;SDS011;4276;49.354;6.804;2023-10-19T10:29:59;5.40;;;4.90;;
8478;SDS011;4276;49.354;6.804;2023-10-19T10:32:48;4.47;;;4.05;;
8478;SDS011;4276;49.354;6.804;2023-10-19T10:38:03;4.95;;;4.55;;
8478;SDS011;4276;49.354;6.804;2023-10-19T10:40:42;4.60;;;4.20;;
8478;SDS011;4276;49.354;6.804;2023-10-19T10:43:09;5.95;;;3.78;;
8478;SDS011;4276;49.354;6.804;2023-10-19T10:45:37;4.30;;;3.95;;
8478;SDS011;4276;49.354;6.804;2023-10-19T10:48:17;5.80;;;4.22;;
8478;SDS011;4276;49.354;6.804;2023-10-19T10:50:46;5.63;;;4.40;;
8478;SDS011;4276;49.354;6.804;2023-10-19T10:53:17;5.13;;;3.83;;
8478;SDS011;4276;49.354;6.804;2023-10-19T10:55:45;4.53;;;3.70;;
8478;SDS011;4276;49.354;6.804;2023-10-19T10:58:16;5.78;;;5.05;;
8478;SDS011;4276;49.354;6.804;2023-10-19T11:00:44;14.52;;;9.88;;
8478;SDS011;4276;49.354;6.804;2023-10-19T11:03:18;11.07;;;8.05;;
8478;SDS011;4276;49.354;6.804;2023-10-19T11:05:45;4.60;;;3.97;;
8478;SDS011;4276;49.354;6.804;2023-10-19T11:08:13;4.95;;;4.43;;
8478;SDS011;4276;49.354;6.804;2023-10-19T11:10:43;4.43;;;3.70;;
8478;SDS011;4276;49.354;6.804;2023-10-19T11:13:15;3.72;;;3.42;;
8478;SDS011;4276;49.354;6.804;2023-10-19T11:15:53;4.20;;;3.45;;
8478;SDS011;4276;49.354;6.804;2023-10-19T11:21:10;3.15;;;2.78;;
8478;SDS011;4276;49.354;6.804;2023-10-19T11:23:39;3.53;;;3.28;;
8478;SDS011;4276;49.354;6.804;2023-10-19T11:26:17;2.90;;;2.70;;
8478;SDS011;4276;49.354;6.804;2023-10-19T11:28:46;4.80;;;4.40;;
8478;SDS011;4276;49.354;6.804;2023-10-19T11:31:20;2.80;;;2.60;;
8478;SDS011;4276;49.354;6.804;2023-10-19T11:33:51;3.17;;;2.67;;
8478;SDS011;4276;49.354;6.804;2023-10-19T11:36:20;2.83;;;2.63;;
8478;SDS011;4276;49.354;6.804;2023-10-19T11:38:49;2.40;;;2.20;;
8478;SDS011;4276;49.354;6.804;2023-10-19T11:41:18;2.63;;;2.45;;
8478;SDS011;4276;49.354;6.804;2023-10-19T11:43:45;2.50;;;2.17;;
8478;SDS011;4276;49.354;6.804;2023-10-19T11:46:12;2.80;;;2.60;;
8478;SDS011;4276;49.354;6.804;2023-10-19T11:48:41;2.20;;;2.00;;
8478;SDS011;4276;49.354;6.804;2023-10-19T11:51:11;2.75;;;2.55;;
8478;SDS011;4276;49.354;6.804;2023-10-19T11:53:38;5.35;;;2.95;;
8478;SDS011;4276;49.354;6.804;2023-10-19T11:56:05;7.72;;;2.67;;
8478;SDS011;4276;49.354;6.804;2023-10-19T11:58:35;4.68;;;2.85;;
8478;SDS011;4276;49.354;6.804;2023-10-19T12:01:05;2.85;;;2.10;;
8478;SDS011;4276;49.354;6.804;2023-10-19T12:03:35;1.90;;;1.80;;
8478;SDS011;4276;49.354;6.804;2023-10-19T12:06:04;2.10;;;1.83;;
8478;SDS011;4276;49.354;6.804;2023-10-19T12:08:33;2.28;;;1.92;;
8478;SDS011;4276;49.354;6.804;2023-10-19T12:15:10;2.15;;;1.95;;
8478;SDS011;4276;49.354;6.804;2023-10-19T12:18:02;3.65;;;2.35;;
8478;SDS011;4276;49.354;6.804;2023-10-19T12:20:29;2.35;;;2.15;;
8478;SDS011;4276;49.354;6.804;2023-10-19T12:22:59;2.40;;;2.20;;
8478;SDS011;4276;49.354;6.804;2023-10-19T12:25:27;1.98;;;1.88;;
8478;SDS011;4276;49.354;6.804;2023-10-19T12:28:21;2.30;;;1.92;;
8478;SDS011;4276;49.354;6.804;2023-10-19T12:30:50;2.30;;;2.10;;
8478;SDS011;4276;49.354;6.804;2023-10-19T12:33:18;3.17;;;2.13;;
8478;SDS011;4276;49.354;6.804;2023-10-19T12:35:49;2.08;;;1.92;;
8478;SDS011;4276;49.354;6.804;2023-10-19T12:39:24;2.13;;;2.00;;
8478;SDS011;4276;49.354;6.804;2023-10-19T12:42:27;2.90;;;2.10;;
8478;SDS011;4276;49.354;6.804;2023-10-19T12:44:54;3.75;;;2.40;;
8478;SDS011;4276;49.354;6.804;2023-10-19T12:47:26;3.53;;;2.13;;
8478;SDS011;4276;49.354;6.804;2023-10-19T12:49:55;2.40;;;2.20;;
8478;SDS011;4276;49.354;6.804;2023-10-19T12:52:22;2.97;;;2.15;;
8478;SDS011;4276;49.354;6.804;2023-10-19T12:54:49;2.63;;;2.13;;
8478;SDS011;4276;49.354;6.804;2023-10-19T12:57:17;3.50;;;2.30;;
8478;SDS011;4276;49.354;6.804;2023-10-19T12:59:46;2.30;;;2.20;;
8478;SDS011;4276;49.354;6.804;2023-10-19T13:02:13;4.13;;;2.40;;
8478;SDS011;4276;49.354;6.804;2023-10-19T13:04:41;2.30;;;2.10;;
8478;SDS011;4276;49.354;6.804;2023-10-19T13:07:09;2.63;;;1.88;;
8478;SDS011;4276;49.354;6.804;2023-10-19T13:09:37;2.55;;;2.35;;
8478;SDS011;4276;49.354;6.804;2023-10-19T13:12:04;2.40;;;2.17;;
8478;SDS011;4276;49.354;6.804;2023-10-19T13:14:37;2.40;;;2.20;;
8478;SDS011;4276;49.354;6.804;2023-10-19T13:17:03;2.50;;;2.30;;
8478;SDS011;4276;49.354;6.804;2023-10-19T13:19:30;2.63;;;2.40;;
8478;SDS011;4276;49.354;6.804;2023-10-19T13:21:58;4.22;;;2.60;;
8478;SDS011;4276;49.354;6.804;2023-10-19T13:24:27;3.10;;;2.72;;
8478;SDS011;4276;49.354;6.804;2023-10-19T13:26:54;2.83;;;2.63;;
8478;SDS011;4276;49.354;6.804;2023-10-19T13:29:20;2.88;;;2.67;;
8478;SDS011;4276;49.354;6.804;2023-10-19T13:31:49;4.10;;;3.30;;
8478;SDS011;4276;49.354;6.804;2023-10-19T13:34:16;2.55;;;2.35;;
8478;SDS011;4276;49.354;6.804;2023-10-19T13:36:44;4.00;;;2.90;;
8478;SDS011;4276;49.354;6.804;2023-10-19T13:39:13;3.58;;;3.28;;
8478;SDS011;4276;49.354;6.804;2023-10-19T13:41:43;3.55;;;2.70;;
8478;SDS011;4276;49.354;6.804;2023-10-19T13:44:10;4.10;;;2.70;;
8478;SDS011;4276;49.354;6.804;2023-10-19T13:46:38;3.10;;;2.55;;
8478;SDS011;4276;49.354;6.804;2023-10-19T13:49:05;3.67;;;3.10;;
8478;SDS011;4276;49.354;6.804;2023-10-19T13:51:32;3.83;;;3.15;;
8478;SDS011;4276;49.354;6.804;2023-10-19T13:53:59;3.00;;;2.70;;
8478;SDS011;4276;49.354;6.804;2023-10-19T13:56:27;2.83;;;2.63;;
8478;SDS011;4276;49.354;6.804;2023-10-19T13:58:56;2.85;;;2.20;;
8478;SDS011;4276;49.354;6.804;2023-10-19T14:01:23;2.95;;;2.60;;
8478;SDS011;4276;49.354;6.804;2023-10-19T14:03:52;3.10;;;2.60;;
8478;SDS011;4276;49.354;6.804;2023-10-19T14:06:22;2.53;;;2.33;;
8478;SDS011;4276;49.354;6.804;2023-10-19T14:08:51;2.92;;;2.10;;
8478;SDS011;4276;49.354;6.804;2023-10-19T14:11:18;2.42;;;2.20;;
8478;SDS011;4276;49.354;6.804;2023-10-19T14:13:45;2.63;;;2.42;;
8478;SDS011;4276;49.354;6.804;2023-10-19T14:16:12;2.35;;;2.15;;
8478;SDS011;4276;49.354;6.804;2023-10-19T14:18:47;1.88;;;1.77;;
8478;SDS011;4276;49.354;6.804;2023-10-19T14:21:17;2.75;;;2.08;;
8478;SDS011;4276;49.354;6.804;2023-10-19T14:24:00;3.15;;;2.22;;
8478;SDS011;4276;49.354;6.804;2023-10-19T14:27:54;2.00;;;1.90;;
8478;SDS011;4276;49.354;6.804;2023-10-19T14:30:27;2.47;;;2.28;;
8478;SDS011;4276;49.354;6.804;2023-10-19T14:33:07;2.55;;;1.98;;
8478;SDS011;4276;49.354;6.804;2023-10-19T14:35:59;2.20;;;2.05;;
8478;SDS011;4276;49.354;6.804;2023-10-19T14:38:27;2.70;;;2.20;;
8478;SDS011;4276;49.354;6.804;2023-10-19T14:40:53;2.47;;;2.28;;
8478;SDS011;4276;49.354;6.804;2023-10-19T14:43:23;2.10;;;1.73;;
8478;SDS011;4276;49.354;6.804;2023-10-19T14:45:52;2.80;;;2.22;;
8478;SDS011;4276;49.354;6.804;2023-10-19T14:48:20;1.83;;;1.73;;
8478;SDS011;4276;49.354;6.804;2023-10-19T14:50:48;2.45;;;2.13;;
8478;SDS011;4276;49.354;6.804;2023-10-19T14:53:17;2.55;;;2.25;;
8478;SDS011;4276;49.354;6.804;2023-10-19T14:55:45;1.80;;;1.70;;
8478;SDS011;4276;49.354;6.804;2023-10-19T14:58:14;2.25;;;1.77;;
8478;SDS011;4276;49.354;6.804;2023-10-19T15:00:55;2.53;;;2.33;;
8478;SDS011;4276;49.354;6.804;2023-10-19T15:07:15;3.03;;;2.13;;
8478;SDS011;4276;49.354;6.804;2023-10-19T15:30:20;6.70;;;5.05;;
8478;SDS011;4276;49.354;6.804;2023-10-19T15:32:55;6.07;;;4.38;;
8478;SDS011;4276;49.354;6.804;2023-10-19T15:35:25;3.20;;;2.90;;
8478;SDS011;4276;49.354;6.804;2023-10-19T15:37:54;3.60;;;2.72;;
8478;SDS011;4276;49.354;6.804;2023-10-19T15:40:22;2.83;;;2.63;;
8478;SDS011;4276;49.354;6.804;2023-10-19T15:42:55;2.97;;;2.78;;
8478;SDS011;4276;49.354;6.804;2023-10-19T15:45:21;3.30;;;3.00;;
8478;SDS011;4276;49.354;6.804;2023-10-19T15:47:53;3.92;;;3.63;;
8478;SDS011;4276;49.354;6.804;2023-10-19T15:50:21;5.45;;;4.93;;
8478;SDS011;4276;49.354;6.804;2023-10-19T15:52:48;10.63;;;9.68;;
8478;SDS011;4276;49.354;6.804;2023-10-19T15:55:21;10.52;;;8.68;;
8478;SDS011;4276;49.354;6.804;2023-10-19T15:57:49;8.45;;;7.75;;
8478;SDS011;4276;49.354;6.804;2023-10-19T16:00:17;6.85;;;6.25;;
8478;SDS011;4276;49.354;6.804;2023-10-19T16:02:44;13.40;;;12.30;;
8478;SDS011;4276;49.354;6.804;2023-10-19T16:05:12;6.45;;;5.90;;
8478;SDS011;4276;49.354;6.804;2023-10-19T16:07:42;6.80;;;4.45;;